Ellendale, Tennessee
Current Conditions -  °F | °C
As of 5:50 PM on Friday 24 Oct 2014 (Local Time) from KNQA Reporting Station
Few Clouds Few Clouds  
Wind Chill: 70°   Ceiling: Unl
Heat Index: 70°   Visibility: 10mi
Dew Point: 57°   Wind: 5mph
Humidity: 64%   Direction: NA
Pressure: 30.07"   Gusts: NA
Location:  35.23°N, 89.83°W
Report Text: KNQA 242250Z VRB04KT 10SM FEW250 21/14 A3007
Loading
Personal Weather Stations






























Interactive Weather Map New forecast layout! Learn more

10-Day Weather Forecast

Advertisements
Track Severe Weather on mobile